Terminal Aerodrome Forecast
Issued by NWS

Home | Current Version | Previous Version | Text Only | Print | Product List | Glossary On
Versions: 1 2 3 4 5 6 7 8 9 10 11 12 13 14 15 16 17 18 19 20 21 22 23 24 25 26 27 28 29 30 31 32 33 34 35 36 37 38 39 40 41 42 43 44 45 46 47
000
FTUS45 KBOU 251739
TAFBJC
TAF
KBJC 251739Z 2518/2618 08005KT P6SM FEW120 SCT200
     FM251900 35008KT P6SM VCTS SCT080CB BKN140
      TEMPO 2520/2524 VRB20G30KT -TSRA BKN080CB
     FM260100 03009KT P6SM VCSH SCT060 BKN100
     FM260900 06009KT 1SM -DZ BR SCT002 OVC006
      TEMPO 2611/2614 1/4SM -DZ FG VV002
     FM261400 11012KT 2SM -SHRA BR SCT002 OVC005=

USA.gov is the U.S. government's official web portal to all federal, state and local government web resources and services.